createdAt,value
2019-04-06T00:01:14.951Z,42.00
2019-04-06T00:03:44.438Z,42.23
2019-04-06T00:06:13.903Z,42.43
2019-04-06T00:08:43.386Z,40.43
2019-04-06T00:11:13.279Z,40.83
2019-04-06T00:13:42.786Z,38.80
2019-04-06T00:16:12.115Z,38.40
2019-04-06T00:18:41.506Z,42.30
2019-04-06T00:21:10.992Z,46.70
2019-04-06T00:23:40.454Z,46.53
2019-04-06T00:26:10.038Z,45.90
2019-04-06T00:28:39.837Z,40.93
2019-04-06T00:31:25.698Z,44.60
2019-04-06T00:33:55.082Z,41.23
2019-04-06T00:36:24.456Z,42.77
2019-04-06T00:38:53.863Z,42.33
2019-04-06T00:41:23.215Z,43.67
2019-04-06T00:43:52.677Z,45.00
2019-04-06T00:46:22.113Z,49.03
2019-04-06T00:48:51.472Z,47.27
2019-04-06T00:51:21.020Z,45.33
2019-04-06T00:53:50.455Z,44.07
2019-04-06T00:56:19.814Z,41.07
2019-04-06T00:58:49.200Z,42.57
2019-04-06T01:01:18.937Z,43.40
2019-04-06T01:03:48.420Z,43.20
2019-04-06T01:06:17.917Z,44.00
2019-04-06T01:08:49.076Z,48.93
2019-04-06T01:11:19.685Z,46.77
2019-04-06T01:13:50.839Z,50.03
2019-04-06T01:16:20.256Z,51.43
2019-04-06T01:18:49.966Z,50.93
2019-04-06T01:21:22.114Z,46.47
2019-04-06T01:23:51.610Z,46.27
2019-04-06T01:26:21.378Z,46.60
2019-04-06T01:28:53.756Z,45.00
2019-04-06T01:31:26.314Z,46.20
2019-04-06T01:33:55.926Z,45.87
2019-04-06T01:36:25.581Z,45.90
2019-04-06T01:38:55.119Z,55.53
2019-04-06T01:41:24.488Z,49.77
2019-04-06T01:43:55.766Z,55.03
2019-04-06T01:46:25.426Z,60.20
2019-04-06T01:48:54.845Z,50.63
2019-04-06T01:51:24.330Z,59.10
2019-04-06T01:53:54.329Z,60.00
2019-04-06T01:56:25.033Z,57.67
2019-04-06T01:58:54.571Z,53.43
2019-04-06T02:01:41.937Z,55.93
2019-04-06T02:04:11.478Z,56.13
2019-04-06T02:06:44.947Z,56.07
2019-04-06T02:09:14.401Z,51.47
2019-04-06T02:11:44.058Z,58.23
2019-04-06T02:14:13.479Z,53.60
2019-04-06T02:16:42.995Z,55.83
2019-04-06T02:19:12.322Z,51.27
2019-04-06T02:21:41.763Z,51.87
2019-04-06T02:24:11.203Z,50.13
2019-04-06T02:26:40.704Z,49.23
2019-04-06T02:29:10.145Z,58.40
2019-04-06T02:32:06.641Z,60.43
2019-04-06T02:34:51.802Z,52.03
2019-04-06T02:37:31.654Z,56.37
2019-04-06T02:40:32.365Z,48.00
2019-04-06T02:43:14.527Z,49.00
2019-04-06T02:45:43.911Z,56.80
2019-04-06T02:48:13.257Z,56.87
2019-04-06T02:50:42.706Z,49.97
2019-04-06T02:53:12.098Z,51.00
2019-04-06T02:55:41.564Z,53.97
2019-04-06T02:58:10.914Z,53.23
2019-04-06T03:00:41.407Z,52.23
2019-04-06T03:03:10.835Z,54.40
2019-04-06T03:05:40.168Z,57.90
2019-04-06T03:08:09.542Z,62.00
2019-04-06T03:10:38.981Z,54.97
2019-04-06T03:13:08.510Z,61.97
2019-04-06T03:15:37.917Z,59.10
2019-04-06T03:18:07.322Z,54.20
2019-04-06T03:20:36.673Z,59.13
2019-04-06T03:23:06.072Z,55.67
2019-04-06T03:25:35.624Z,48.90
2019-04-06T03:28:05.141Z,58.00
2019-04-06T03:30:34.754Z,60.83
2019-04-06T03:33:04.589Z,53.83
2019-04-06T03:35:34.046Z,58.43
2019-04-06T03:38:03.565Z,51.30
2019-04-06T03:40:33.114Z,53.33
2019-04-06T03:43:02.463Z,58.93
2019-04-06T03:45:31.877Z,57.97
2019-04-06T03:48:01.309Z,56.67
2019-04-06T03:50:30.997Z,54.23
2019-04-06T03:53:00.481Z,61.37
2019-04-06T03:55:29.868Z,59.97
2019-04-06T03:57:59.204Z,59.30
2019-04-06T04:00:28.567Z,66.03
2019-04-06T04:02:57.998Z,60.27
2019-04-06T04:05:27.466Z,50.90
2019-04-06T04:07:56.890Z,52.43
2019-04-06T04:10:33.085Z,60.53
2019-04-06T04:13:02.502Z,46.80
2019-04-06T04:15:31.921Z,62.20
2019-04-06T04:18:01.652Z,50.30
2019-04-06T04:20:30.998Z,54.13
2019-04-06T04:23:00.330Z,52.70
2019-04-06T04:25:29.765Z,52.60
2019-04-06T04:27:59.395Z,51.80
2019-04-06T04:30:33.421Z,51.33
2019-04-06T04:32:59.839Z,52.80
2019-04-06T04:35:29.160Z,50.17
2019-04-06T04:37:58.562Z,45.60
2019-04-06T04:40:27.936Z,52.23
2019-04-06T04:42:57.367Z,56.20
2019-04-06T04:45:26.893Z,52.80
2019-04-06T04:47:56.305Z,58.60
2019-04-06T04:50:26.005Z,51.83
2019-04-06T04:52:55.481Z,47.43
2019-04-06T04:55:24.889Z,60.97
2019-04-06T04:57:54.198Z,56.43
2019-04-06T05:00:23.596Z,61.37
2019-04-06T05:02:52.959Z,57.53
2019-04-06T05:05:22.372Z,70.60
2019-04-06T05:07:51.760Z,74.43
2019-04-06T05:10:21.263Z,61.80
2019-04-06T05:12:50.668Z,52.33
2019-04-06T05:15:30.012Z,61.00
2019-04-06T05:17:59.457Z,46.97
2019-04-06T05:20:29.009Z,48.70
2019-04-06T05:22:58.571Z,53.17
2019-04-06T05:25:27.991Z,58.00
2019-04-06T05:27:57.430Z,62.27
2019-04-06T05:30:26.863Z,57.60
2019-04-06T05:32:56.306Z,52.67
2019-04-06T05:35:25.738Z,59.43
2019-04-06T05:37:55.094Z,59.43
2019-04-06T05:40:25.686Z,59.13
2019-04-06T05:42:55.157Z,62.37
2019-04-06T05:45:24.578Z,71.43
2019-04-06T05:47:54.608Z,82.63
2019-04-06T05:50:24.148Z,57.40
2019-04-06T05:52:53.529Z,63.10
2019-04-06T05:55:24.442Z,60.90
2019-04-06T05:58:02.794Z,77.53
2019-04-06T06:00:25.225Z,62.97
2019-04-06T06:02:54.612Z,56.53
2019-04-06T06:05:23.966Z,53.63
2019-04-06T06:07:53.398Z,54.93
2019-04-06T06:10:22.862Z,57.10
2019-04-06T06:12:53.303Z,60.80
2019-04-06T06:15:22.669Z,63.73
2019-04-06T06:17:52.120Z,54.50
2019-04-06T06:20:21.526Z,60.30
2019-04-06T06:22:50.830Z,67.60
2019-04-06T06:25:20.202Z,76.53
2019-04-06T06:27:49.548Z,93.47
2019-04-06T06:30:18.973Z,78.37
2019-04-06T06:32:48.321Z,74.30
2019-04-06T06:35:17.726Z,78.33
2019-04-06T06:37:47.248Z,65.83
2019-04-06T06:40:16.832Z,60.47
2019-04-06T06:42:46.251Z,60.73
2019-04-06T06:45:15.563Z,62.83
2019-04-06T06:47:44.964Z,63.43
2019-04-06T06:50:14.473Z,58.63
2019-04-06T06:52:43.874Z,59.60
2019-04-06T06:55:13.636Z,62.97
2019-04-06T06:57:43.084Z,59.30
2019-04-06T07:00:12.839Z,60.97
2019-04-06T07:02:42.194Z,57.00
2019-04-06T07:05:11.602Z,56.70
2019-04-06T07:07:41.025Z,65.63
2019-04-06T07:10:10.633Z,62.80
2019-04-06T07:12:40.004Z,57.03
2019-04-06T07:15:09.313Z,52.63
2019-04-06T07:17:38.810Z,50.30
2019-04-06T07:20:08.518Z,51.43
2019-04-06T07:22:37.914Z,52.20
2019-04-06T07:25:07.932Z,51.03
2019-04-06T07:27:37.327Z,50.13
2019-04-06T07:30:07.309Z,47.63
2019-04-06T07:32:36.615Z,50.90
2019-04-06T07:35:06.318Z,56.77
2019-04-06T07:37:36.879Z,53.23
2019-04-06T07:40:07.266Z,43.30
2019-04-06T07:42:36.895Z,52.63
2019-04-06T07:45:07.127Z,58.13
2019-04-06T07:47:36.454Z,46.00
2019-04-06T07:50:06.603Z,46.70
2019-04-06T07:52:37.588Z,54.67
2019-04-06T07:55:08.059Z,57.07
2019-04-06T07:57:37.488Z,43.50
2019-04-06T08:00:07.132Z,49.20
2019-04-06T08:02:36.568Z,50.73
2019-04-06T08:05:08.012Z,54.57
2019-04-06T08:07:37.414Z,42.03
2019-04-06T08:10:07.006Z,52.30
2019-04-06T08:12:36.519Z,39.10
2019-04-06T08:15:06.723Z,40.33
2019-04-06T08:17:36.101Z,60.67
2019-04-06T08:20:06.616Z,44.43
2019-04-06T08:22:36.068Z,44.03
2019-04-06T08:25:05.647Z,41.57
2019-04-06T08:27:35.060Z,42.93
2019-04-06T08:30:05.727Z,44.37
2019-04-06T08:32:35.254Z,41.00
2019-04-06T08:35:05.248Z,44.50
2019-04-06T08:37:35.690Z,51.57
2019-04-06T08:40:06.375Z,65.67
2019-04-06T08:42:35.711Z,89.03
2019-04-06T08:45:05.241Z,45.70
2019-04-06T08:47:34.664Z,40.97
2019-04-06T08:50:04.477Z,46.00
2019-04-06T08:52:33.875Z,41.07
2019-04-06T08:55:03.324Z,42.07
2019-04-06T08:57:32.680Z,54.93
2019-04-06T09:00:02.011Z,44.57
2019-04-06T09:02:31.420Z,44.27
2019-04-06T09:05:00.816Z,43.77
2019-04-06T09:07:32.023Z,48.87
2019-04-06T09:10:01.461Z,48.23
2019-04-06T09:12:30.907Z,48.47
2019-04-06T09:15:00.240Z,43.10
2019-04-06T09:17:29.673Z,45.67
2019-04-06T09:19:59.073Z,49.97
2019-04-06T09:22:28.699Z,51.95
2019-04-06T09:24:58.025Z,43.95
2019-04-06T09:27:27.435Z,42.85
2019-04-06T09:29:56.850Z,49.35
2019-04-06T09:32:26.753Z,47.60
2019-04-06T09:34:56.116Z,42.45
2019-04-06T09:37:25.602Z,37.30
2019-04-06T09:39:55.048Z,36.90
2019-04-06T09:42:24.612Z,41.60
2019-04-06T09:45:16.466Z,40.28
2019-04-06T09:47:56.964Z,39.05
2019-04-06T09:50:36.281Z,40.20
2019-04-06T09:53:11.425Z,39.42
2019-04-06T09:55:59.354Z,39.73
2019-04-06T09:58:35.503Z,40.00
2019-04-06T10:01:23.884Z,40.65
2019-04-06T10:04:01.467Z,38.45
2019-04-06T10:06:48.630Z,42.73
2019-04-06T10:09:35.854Z,39.27
2019-04-06T10:12:30.411Z,41.83
2019-04-06T10:15:16.521Z,42.67
2019-04-06T10:18:03.850Z,41.83
2019-04-06T10:21:04.431Z,40.85
2019-04-06T10:23:53.214Z,38.67
2019-04-06T10:26:31.751Z,39.33
2019-04-06T10:29:20.752Z,39.50
2019-04-06T10:32:08.847Z,40.00
2019-04-06T10:35:03.259Z,39.80
2019-04-06T10:37:51.660Z,38.78
2019-04-06T10:40:30.958Z,37.48
2019-04-06T10:43:10.340Z,37.95
2019-04-06T10:45:52.987Z,38.97
2019-04-06T10:48:41.536Z,36.90
2019-04-06T10:51:36.623Z,50.45
2019-04-06T10:54:16.286Z,42.53
2019-04-06T10:57:11.138Z,38.35
2019-04-06T11:00:22.024Z,33.85
2019-04-06T11:03:16.182Z,33.67
2019-04-06T11:05:57.368Z,35.23
2019-04-06T11:08:44.523Z,35.40
2019-04-06T11:11:42.216Z,34.03
2019-04-06T11:14:33.671Z,32.90
2019-04-06T11:17:20.818Z,31.00
2019-04-06T11:20:27.683Z,31.93
2019-04-06T11:23:34.292Z,29.15
2019-04-06T11:26:34.742Z,30.23
2019-04-06T11:29:35.131Z,30.62
2019-04-06T11:32:20.136Z,32.70
2019-04-06T11:35:08.534Z,30.70
2019-04-06T11:37:56.895Z,30.23
2019-04-06T11:40:51.285Z,44.77
2019-04-06T11:43:41.458Z,31.85
2019-04-06T11:46:39.243Z,32.58
2019-04-06T11:49:39.558Z,30.88
2019-04-06T11:52:30.791Z,26.75
2019-04-06T11:55:14.127Z,29.12
2019-04-06T11:58:02.478Z,28.47
2019-04-06T12:00:50.371Z,20.20
2019-04-06T12:03:37.603Z,22.27
2019-04-06T12:06:16.182Z,23.22
2019-04-06T12:09:13.862Z,22.73
2019-04-06T12:12:01.113Z,22.30
2019-04-06T12:14:46.412Z,20.82
2019-04-06T12:17:34.540Z,24.83
2019-04-06T12:20:21.965Z,22.47
2019-04-06T12:23:08.352Z,21.50
2019-04-06T12:25:59.597Z,21.60
2019-04-06T12:28:37.058Z,21.83
2019-04-06T12:31:26.706Z,21.33
2019-04-06T12:34:21.839Z,21.23
2019-04-06T12:37:06.637Z,19.67
2019-04-06T12:39:54.179Z,20.03
2019-04-06T12:42:37.173Z,19.07
2019-04-06T12:45:29.136Z,19.40
2019-04-06T12:48:17.538Z,19.10
2019-04-06T12:50:58.419Z,19.23
2019-04-06T12:53:49.459Z,19.80
2019-04-06T12:56:40.851Z,20.23
2019-04-06T12:59:41.093Z,18.10
2019-04-06T13:02:19.769Z,18.90
2019-04-06T13:05:13.539Z,17.63
2019-04-06T13:08:01.957Z,16.20
2019-04-06T13:10:49.814Z,18.43
2019-04-06T13:13:35.176Z,17.80
2019-04-06T13:16:26.652Z,18.43
2019-04-06T13:19:15.004Z,17.83
2019-04-06T13:22:02.530Z,16.50
2019-04-06T13:24:56.906Z,17.70
2019-04-06T13:27:41.903Z,15.08
2019-04-06T13:30:33.376Z,15.73
2019-04-06T13:33:20.452Z,15.33
2019-04-06T13:36:14.837Z,16.07
2019-04-06T13:39:02.482Z,15.97
2019-04-06T13:41:50.899Z,16.27
2019-04-06T13:44:39.264Z,14.33
2019-04-06T13:47:28.026Z,16.27
2019-04-06T13:50:35.026Z,15.67
2019-04-06T13:53:32.561Z,15.67
2019-04-06T13:56:12.418Z,14.53
2019-04-06T13:59:07.907Z,14.43
2019-04-06T14:01:46.655Z,16.23
2019-04-06T14:04:40.991Z,15.03
2019-04-06T14:07:22.563Z,15.00
2019-04-06T14:10:01.385Z,15.93
2019-04-06T14:12:49.103Z,14.77
2019-04-06T14:15:37.384Z,15.70
2019-04-06T14:18:24.789Z,15.77
2019-04-06T14:21:11.299Z,14.20
2019-04-06T14:24:12.199Z,15.90
2019-04-06T14:26:59.606Z,14.33
2019-04-06T14:29:43.588Z,16.57
2019-04-06T14:32:30.041Z,16.37
2019-04-06T14:35:18.063Z,14.97
2019-04-06T14:38:12.740Z,16.63
2019-04-06T14:40:57.975Z,15.97
2019-04-06T14:43:43.685Z,20.63
2019-04-06T14:46:32.071Z,16.00
2019-04-06T14:49:32.327Z,16.93
2019-04-06T14:52:18.656Z,16.37
2019-04-06T14:55:15.880Z,17.10
2019-04-06T14:58:07.256Z,16.23
2019-04-06T15:00:50.066Z,16.20
2019-04-06T15:03:41.614Z,16.90
2019-04-06T15:06:30.293Z,16.07
2019-04-06T15:09:11.992Z,16.43
2019-04-06T15:12:12.742Z,16.87
2019-04-06T15:14:59.693Z,15.93
2019-04-06T15:17:54.849Z,15.27
2019-04-06T15:20:41.564Z,14.43
2019-04-06T15:23:25.391Z,16.50
2019-04-06T15:26:19.368Z,15.17
2019-04-06T15:29:07.718Z,15.03
2019-04-06T15:31:52.542Z,13.83
2019-04-06T15:34:39.617Z,14.77
2019-04-06T15:37:34.254Z,15.87
2019-04-06T15:40:13.632Z,14.40
2019-04-06T15:43:05.259Z,16.13
2019-04-06T15:45:53.986Z,14.57
2019-04-06T15:48:51.556Z,14.80
2019-04-06T15:51:29.373Z,13.37
2019-04-06T15:54:13.708Z,14.50
2019-04-06T15:57:05.273Z,14.60
2019-04-06T15:59:49.487Z,13.97
2019-04-06T16:02:38.228Z,12.67
2019-04-06T16:05:25.828Z,13.40
2019-04-06T16:08:23.394Z,10.83
2019-04-06T16:11:15.413Z,13.73
2019-04-06T16:14:19.057Z,12.70
2019-04-06T16:16:58.225Z,10.93
2019-04-06T16:19:40.862Z,11.67
2019-04-06T16:22:35.236Z,11.77
2019-04-06T16:25:30.419Z,12.60
2019-04-06T16:28:17.080Z,16.27
2019-04-06T16:31:05.448Z,14.70
2019-04-06T16:34:00.455Z,13.17
2019-04-06T16:36:42.206Z,13.47
2019-04-06T16:39:33.268Z,12.70
2019-04-06T16:42:21.709Z,11.53
2019-04-06T16:45:10.032Z,10.70
2019-04-06T16:47:54.870Z,13.00
2019-04-06T16:50:48.300Z,11.93
2019-04-06T16:53:47.469Z,12.23
2019-04-06T16:56:21.705Z,11.60
2019-04-06T16:59:01.128Z,13.27
2019-04-06T17:01:43.074Z,12.80
2019-04-06T17:04:25.887Z,10.60
2019-04-06T17:07:14.481Z,10.87
2019-04-06T17:10:02.101Z,10.47
2019-04-06T17:12:56.937Z,11.33
2019-04-06T17:15:49.014Z,12.10
2019-04-06T17:18:44.172Z,11.50
2019-04-06T17:21:23.380Z,11.17
2019-04-06T17:24:16.810Z,12.00
2019-04-06T17:27:11.546Z,12.57
2019-04-06T17:29:58.763Z,13.43
2019-04-06T17:32:37.222Z,12.93
2019-04-06T17:35:21.119Z,12.07
2019-04-06T17:37:56.666Z,12.43
2019-04-06T17:40:45.114Z,13.67
2019-04-06T17:43:26.578Z,12.57
2019-04-06T17:46:18.443Z,12.43
2019-04-06T17:49:06.002Z,12.60
2019-04-06T17:51:47.459Z,12.37
2019-04-06T17:54:38.865Z,11.97
2019-04-06T17:57:36.524Z,11.80
2019-04-06T18:00:22.182Z,12.20
2019-04-06T18:03:10.554Z,12.30
2019-04-06T18:06:02.563Z,12.10
2019-04-06T18:08:51.107Z,13.50
2019-04-06T18:11:45.486Z,13.03
2019-04-06T18:14:17.836Z,13.50
2019-04-06T18:16:46.151Z,13.20
2019-04-06T18:19:15.706Z,13.13
2019-04-06T18:21:45.100Z,12.17
2019-04-06T18:24:14.710Z,13.47
2019-04-06T18:26:44.204Z,13.30
2019-04-06T18:29:13.648Z,13.30
2019-04-06T18:31:48.967Z,13.40
2019-04-06T18:34:18.707Z,13.70
2019-04-06T18:36:54.851Z,13.53
2019-04-06T18:39:24.413Z,14.37
2019-04-06T18:41:53.790Z,14.50
2019-04-06T18:44:23.238Z,19.37
2019-04-06T18:46:52.917Z,17.10
2019-04-06T18:49:22.760Z,17.40
2019-04-06T18:51:52.394Z,19.47
2019-04-06T18:54:22.187Z,17.40
2019-04-06T18:56:51.629Z,16.27
2019-04-06T18:59:21.056Z,17.80
2019-04-06T19:01:50.829Z,15.93
2019-04-06T19:04:20.219Z,16.40
2019-04-06T19:06:50.354Z,14.77
2019-04-06T19:09:23.765Z,15.03
2019-04-06T19:11:55.526Z,15.17
2019-04-06T19:14:21.939Z,15.27
2019-04-06T19:16:51.446Z,14.90
2019-04-06T19:19:20.882Z,15.43
2019-04-06T19:21:50.295Z,14.93
2019-04-06T19:24:20.222Z,14.80
2019-04-06T19:26:49.976Z,14.87
2019-04-06T19:29:20.662Z,14.90
2019-04-06T19:31:50.575Z,14.50
2019-04-06T19:34:20.620Z,15.53
2019-04-06T19:36:49.987Z,14.53
2019-04-06T19:39:19.776Z,16.10
2019-04-06T19:41:51.022Z,16.50
2019-04-06T19:44:20.647Z,14.83
2019-04-06T19:46:50.422Z,15.90
2019-04-06T19:49:20.531Z,14.10
2019-04-06T19:51:49.969Z,15.27
2019-04-06T19:54:19.789Z,15.20
2019-04-06T19:56:50.385Z,15.47
2019-04-06T19:59:19.805Z,14.80
2019-04-06T20:01:49.341Z,14.83
2019-04-06T20:04:18.686Z,15.30
2019-04-06T20:06:48.099Z,16.13
2019-04-06T20:09:17.449Z,15.27
2019-04-06T20:11:46.869Z,14.57
2019-04-06T20:14:16.305Z,15.50
2019-04-06T20:16:45.693Z,15.27
2019-04-06T20:19:15.233Z,15.83
2019-04-06T20:21:44.715Z,15.63
2019-04-06T20:24:14.413Z,15.27
2019-04-06T20:26:43.738Z,15.17
2019-04-06T20:29:13.094Z,15.53
2019-04-06T20:31:42.895Z,14.63
2019-04-06T20:34:12.306Z,15.00
2019-04-06T20:36:41.954Z,15.87
2019-04-06T20:39:11.502Z,16.70
2019-04-06T20:41:40.872Z,15.97
2019-04-06T20:44:10.821Z,15.27
2019-04-06T20:46:40.230Z,16.57
2019-04-06T20:49:09.623Z,15.73
2019-04-06T20:51:39.046Z,16.87
2019-04-06T20:54:09.059Z,17.13
2019-04-06T20:56:38.375Z,16.17
2019-04-06T20:59:07.701Z,16.47
2019-04-06T21:01:37.145Z,17.10
2019-04-06T21:04:06.848Z,18.40
2019-04-06T21:06:36.964Z,23.83
2019-04-06T21:09:12.063Z,18.90
2019-04-06T21:11:41.475Z,18.00
2019-04-06T21:14:11.114Z,17.47
2019-04-06T21:16:40.496Z,16.90
2019-04-06T21:19:10.302Z,15.97
2019-04-06T21:21:39.823Z,16.37
2019-04-06T21:24:09.239Z,17.53
2019-04-06T21:26:38.918Z,16.50
2019-04-06T21:29:08.991Z,16.47
2019-04-06T21:31:38.367Z,16.33
2019-04-06T21:34:11.894Z,15.80
2019-04-06T21:36:39.573Z,16.57
2019-04-06T21:39:09.738Z,16.70
2019-04-06T21:41:39.615Z,16.90
2019-04-06T21:44:09.076Z,17.20
2019-04-06T21:46:38.368Z,16.57
2019-04-06T21:49:07.842Z,17.13
2019-04-06T21:51:37.159Z,16.80
2019-04-06T21:54:06.736Z,17.60
2019-04-06T21:56:36.074Z,15.73
2019-04-06T21:59:05.451Z,16.70
2019-04-06T22:01:35.533Z,17.20
2019-04-06T22:04:05.397Z,17.77
2019-04-06T22:06:34.939Z,16.90
2019-04-06T22:09:08.173Z,17.37
2019-04-06T22:11:37.584Z,17.33
2019-04-06T22:14:07.008Z,17.53
2019-04-06T22:16:36.454Z,16.40
2019-04-06T22:19:05.820Z,16.87
2019-04-06T22:21:35.183Z,17.17
2019-04-06T22:24:04.658Z,16.87
2019-04-06T22:26:34.023Z,17.33
2019-04-06T22:29:03.847Z,16.57
2019-04-06T22:31:33.334Z,16.90
2019-04-06T22:34:02.684Z,17.40
2019-04-06T22:36:32.024Z,16.63
2019-04-06T22:39:01.355Z,16.27
2019-04-06T22:41:31.128Z,16.87
2019-04-06T22:44:00.760Z,17.27
2019-04-06T22:46:30.208Z,17.60
2019-04-06T22:49:00.105Z,17.07
2019-04-06T22:51:29.974Z,16.57
2019-04-06T22:53:59.416Z,17.43
2019-04-06T22:56:29.364Z,17.43
2019-04-06T22:58:58.741Z,17.33
2019-04-06T23:01:30.408Z,17.00
2019-04-06T23:04:21.968Z,18.17
2019-04-06T23:07:06.193Z,18.07
2019-04-06T23:09:36.044Z,16.67
2019-04-06T23:12:05.408Z,18.47
2019-04-06T23:14:35.113Z,17.67
2019-04-06T23:17:05.303Z,18.87
2019-04-06T23:19:34.832Z,17.70
2019-04-06T23:22:04.587Z,17.77
2019-04-06T23:24:33.983Z,18.00
2019-04-06T23:27:03.494Z,18.03
2019-04-06T23:29:32.879Z,17.93
2019-04-06T23:32:02.695Z,17.53
2019-04-06T23:34:32.085Z,18.77
2019-04-06T23:37:01.518Z,18.10
2019-04-06T23:39:30.909Z,16.83
2019-04-06T23:42:00.321Z,17.53
2019-04-06T23:44:29.752Z,17.63
2019-04-06T23:46:59.086Z,17.73
2019-04-06T23:49:29.026Z,18.40
2019-04-06T23:51:58.759Z,18.27
2019-04-06T23:54:28.160Z,18.03
2019-04-06T23:56:57.933Z,18.17
2019-04-06T23:59:27.320Z,17.97
